Time;durP1;ratioP1;P1;durP2;ratioP2;P2;SDS_P1;SDS_P2;PMS_P1;PMS_P2;Temp;Humidity;BMP_temperature;BMP_pressure;BME280_temperature;BME280_humidity;BME280_pressure;Samples;Min_cycle;Max_cycle;Signal;HPM_P1;HPM_P2
2024/03/19 00:02:40;;;;;;;24.90;13.40;;;;;;;1.95;82.43;100302.98;217353;1259;140589;-68
2024/03/19 00:07:44;;;;;;;20.40;12.60;;;;;;;1.93;82.60;100309.52;217523;1259;141041;-68
2024/03/19 00:12:47;;;;;;;20.50;13.30;;;;;;;1.91;82.64;100309.61;217039;1259;140174;-71
2024/03/19 00:17:52;;;;;;;24.50;14.20;;;;;;;1.89;82.89;100307.80;217468;1259;140445;-71
2024/03/19 00:22:56;;;;;;;21.00;12.50;;;;;;;1.90;82.90;100314.80;217199;1263;139970;-69
2024/03/19 00:28:00;;;;;;;19.00;13.00;;;;;;;1.89;82.77;100315.86;217172;1263;140267;-69
2024/03/19 00:33:05;;;;;;;22.90;12.00;;;;;;;1.89;82.99;100321.86;217149;1263;139961;-69
2024/03/19 00:38:08;;;;;;;21.80;14.20;;;;;;;1.87;82.79;100321.40;217263;1259;140668;-72
2024/03/19 00:43:12;;;;;;;22.00;13.10;;;;;;;1.85;82.95;100321.92;217169;1260;140371;-68
2024/03/19 00:48:15;;;;;;;25.70;14.40;;;;;;;1.83;83.19;100322.55;217530;1260;140030;-69
2024/03/19 00:53:18;;;;;;;23.50;13.90;;;;;;;1.81;83.03;100323.49;217387;1263;141016;-68
2024/03/19 00:58:21;;;;;;;21.90;13.60;;;;;;;1.80;83.58;100325.16;217228;1265;140242;-70
2024/03/19 01:03:24;;;;;;;25.70;15.30;;;;;;;1.79;83.03;100326.68;217099;1264;140687;-69
2024/03/19 01:08:27;;;;;;;22.70;14.00;;;;;;;1.76;83.24;100320.53;217363;1259;141110;-69
2024/03/19 01:13:31;;;;;;;25.10;15.30;;;;;;;1.74;83.48;100315.96;217163;1263;140737;-69
2024/03/19 01:18:35;;;;;;;23.40;14.00;;;;;;;1.72;83.55;100320.20;217327;1263;140129;-69
2024/03/19 01:23:39;;;;;;;22.50;13.50;;;;;;;1.68;83.45;100325.48;217218;1263;140684;-68
2024/03/19 01:28:43;;;;;;;23.50;13.00;;;;;;;1.64;83.50;100326.45;217157;1263;141157;-67
2024/03/19 01:33:45;;;;;;;20.00;11.60;;;;;;;1.59;83.56;100327.00;216937;1261;141539;-69
2024/03/19 01:38:49;;;;;;;20.50;12.40;;;;;;;1.51;83.23;100325.89;217119;1263;141418;-68
2024/03/19 01:43:53;;;;;;;25.00;12.50;;;;;;;1.46;82.96;100328.18;217300;1263;141488;-69
2024/03/19 01:48:58;;;;;;;21.60;12.90;;;;;;;1.41;83.11;100328.76;217887;1263;140421;-73
2024/03/19 01:54:02;;;;;;;21.90;13.60;;;;;;;1.38;83.38;100332.10;217097;1264;141555;-69
2024/03/19 01:59:06;;;;;;;21.20;12.00;;;;;;;1.37;83.51;100334.78;216982;1265;140766;-69
2024/03/19 02:04:11;;;;;;;21.10;11.10;;;;;;;1.33;83.18;100339.02;217147;1263;140565;-69
2024/03/19 02:09:14;;;;;;;19.60;11.80;;;;;;;1.28;83.19;100335.54;217321;1263;140444;-69
2024/03/19 02:14:18;;;;;;;19.80;12.80;;;;;;;1.23;83.58;100341.79;217533;1261;140969;-69
2024/03/19 02:19:23;;;;;;;16.90;10.80;;;;;;;1.22;83.51;100343.83;217235;1261;140611;-68
2024/03/19 02:24:25;;;;;;;17.50;11.50;;;;;;;1.22;83.42;100344.10;217538;1259;140209;-68
2024/03/19 02:29:29;;;;;;;16.90;11.70;;;;;;;1.19;83.57;100348.58;217221;1263;140218;-68
2024/03/19 02:34:32;;;;;;;18.50;11.40;;;;;;;1.15;83.57;100352.85;217026;1264;141232;-69
2024/03/19 02:39:37;;;;;;;20.30;12.60;;;;;;;1.11;83.67;100350.50;218463;1261;140754;-71
2024/03/19 02:44:40;;;;;;;21.60;12.30;;;;;;;1.08;83.46;100357.30;217290;1263;140161;-68
2024/03/19 02:49:44;;;;;;;21.20;13.50;;;;;;;1.05;83.95;100365.15;217214;1261;141409;-69
2024/03/19 02:54:47;;;;;;;19.60;12.50;;;;;;;1.01;83.93;100370.21;217883;1262;141896;-69
2024/03/19 02:59:50;;;;;;;22.90;12.00;;;;;;;0.98;83.87;100378.69;217164;1263;141967;-68
2024/03/19 03:04:53;;;;;;;22.40;13.00;;;;;;;1.03;84.02;100381.11;217889;1265;140693;-69
2024/03/19 03:09:57;;;;;;;22.30;12.70;;;;;;;1.05;84.00;100386.45;217523;1261;140494;-69
2024/03/19 03:15:00;;;;;;;22.80;11.70;;;;;;;1.10;84.52;100385.78;217242;1262;141021;-70
2024/03/19 03:20:05;;;;;;;23.40;11.10;;;;;;;1.14;84.05;100387.11;217271;1260;140071;-67
2024/03/19 03:25:11;;;;;;;24.80;12.90;;;;;;;1.13;84.31;100393.28;217185;1264;142029;-69
2024/03/19 03:30:14;;;;;;;22.80;12.80;;;;;;;1.14;84.11;100397.92;216767;1267;141438;-69
2024/03/19 03:35:18;;;;;;;23.90;13.40;;;;;;;1.16;84.35;100398.48;216999;1261;141119;-68
2024/03/19 03:40:24;;;;;;;22.70;12.80;;;;;;;1.14;84.46;100404.81;217038;1264;140605;-67
2024/03/19 03:45:27;;;;;;;27.50;13.90;;;;;;;1.13;84.14;100410.48;217175;1264;140469;-69
2024/03/19 03:50:30;;;;;;;19.60;13.30;;;;;;;1.12;84.20;100412.02;217463;1264;141000;-67
2024/03/19 03:55:33;;;;;;;24.00;13.40;;;;;;;1.11;84.08;100410.37;216968;1261;140236;-69
2024/03/19 04:00:38;;;;;;;25.00;13.00;;;;;;;1.12;84.64;100413.73;216972;1264;141559;-67
2024/03/19 04:05:47;;;;;;;21.10;13.20;;;;;;;1.10;84.26;100416.54;217620;1261;140453;-68
2024/03/19 04:10:50;;;;;;;20.60;11.70;;;;;;;1.13;84.20;100419.58;217400;1263;141025;-68
2024/03/19 04:15:55;;;;;;;18.40;12.70;;;;;;;1.13;84.39;100420.48;218318;1261;141139;-66
2024/03/19 04:20:59;;;;;;;24.90;13.60;;;;;;;1.09;84.00;100426.27;217143;1260;140770;-69
2024/03/19 04:26:03;;;;;;;20.80;13.60;;;;;;;1.04;83.74;100437.11;217693;1264;140757;-68
2024/03/19 04:31:07;;;;;;;22.20;14.70;;;;;;;0.99;84.01;100442.70;218001;1260;227770;-68
2024/03/19 04:36:10;;;;;;;20.90;11.60;;;;;;;0.95;83.56;100447.79;218978;1260;141002;-69
2024/03/19 04:41:13;;;;;;;25.60;14.10;;;;;;;0.93;83.74;100448.91;217143;1260;140172;-68
2024/03/19 04:46:16;;;;;;;19.70;12.90;;;;;;;0.93;83.92;100457.09;216887;1261;140930;-68
2024/03/19 04:51:20;;;;;;;25.60;15.20;;;;;;;0.93;84.14;100462.20;217003;1263;141266;-68
2024/03/19 04:56:24;;;;;;;20.60;12.80;;;;;;;0.93;83.97;100468.02;217295;1260;140613;-68
2024/03/19 05:01:29;;;;;;;21.70;12.70;;;;;;;0.91;84.04;100469.57;217184;1260;140837;-68
2024/03/19 05:06:33;;;;;;;29.50;16.50;;;;;;;0.91;84.36;100477.70;217621;1260;141411;-68
2024/03/19 05:11:36;;;;;;;27.40;14.20;;;;;;;0.91;84.69;100480.09;217298;1260;140539;-69
2024/03/19 05:16:41;;;;;;;23.00;13.80;;;;;;;0.91;84.04;100483.40;217080;1263;141299;-67
2024/03/19 05:21:44;;;;;;;23.70;14.10;;;;;;;0.86;83.99;100493.16;217053;1264;140361;-68
2024/03/19 05:26:48;;;;;;;25.80;13.90;;;;;;;0.81;84.14;100496.98;217130;1259;140303;-68
2024/03/19 05:31:50;;;;;;;24.10;12.50;;;;;;;0.82;84.61;100501.63;216889;1260;394981;-68
2024/03/19 05:36:53;;;;;;;36.20;17.50;;;;;;;0.86;84.25;100506.48;216834;1260;141433;-69
2024/03/19 05:41:56;;;;;;;39.10;18.90;;;;;;;0.85;84.78;100513.10;217572;1260;140456;-70
2024/03/19 05:46:59;;;;;;;41.00;19.50;;;;;;;0.83;84.45;100518.23;217345;1261;140664;-68
2024/03/19 05:52:03;;;;;;;35.20;19.50;;;;;;;0.75;84.56;100522.88;217210;1260;140093;-68
2024/03/19 05:57:07;;;;;;;31.90;16.20;;;;;;;0.67;84.37;100520.81;219395;1260;140390;-69
2024/03/19 06:02:11;;;;;;;32.60;15.20;;;;;;;0.69;84.64;100522.60;217598;1263;141698;-69
2024/03/19 06:07:15;;;;;;;26.30;14.90;;;;;;;0.71;84.78;100523.77;217114;1259;140335;-70
2024/03/19 06:12:17;;;;;;;27.00;13.60;;;;;;;0.72;84.54;100523.61;217279;1259;141000;-69
2024/03/19 06:17:21;;;;;;;24.90;14.00;;;;;;;0.72;84.57;100527.31;216997;1263;141603;-70
2024/03/19 06:22:25;;;;;;;33.50;15.60;;;;;;;0.70;84.31;100529.48;218078;1260;141613;-68
2024/03/19 06:27:28;;;;;;;27.10;13.40;;;;;;;0.62;84.18;100531.49;217153;1261;141051;-69
2024/03/19 06:32:32;;;;;;;26.60;12.90;;;;;;;0.57;84.37;100536.52;217428;1261;141465;-70
2024/03/19 06:37:36;;;;;;;28.50;15.10;;;;;;;0.59;84.62;100538.73;217371;1263;140613;-68
2024/03/19 06:42:39;;;;;;;30.60;14.50;;;;;;;0.70;85.06;100540.42;216948;1261;141062;-69
2024/03/19 06:47:44;;;;;;;30.10;16.10;;;;;;;0.86;85.13;100543.81;216982;1259;141073;-67
2024/03/19 06:52:47;;;;;;;29.10;15.30;;;;;;;0.97;85.49;100551.20;217374;1260;140957;-69
2024/03/19 06:57:51;;;;;;;27.00;14.40;;;;;;;1.05;85.21;100555.03;216921;1260;140402;-67
2024/03/19 07:02:56;;;;;;;26.10;14.50;;;;;;;1.15;85.07;100561.05;217234;1260;141276;-69
2024/03/19 07:07:59;;;;;;;29.20;16.40;;;;;;;1.26;85.08;100564.59;217153;1260;140103;-69
2024/03/19 07:13:03;;;;;;;32.10;17.00;;;;;;;1.35;84.70;100570.86;217495;1259;142049;-71
2024/03/19 07:18:09;;;;;;;29.80;14.80;;;;;;;1.40;84.77;100573.52;217026;1263;140424;-72
2024/03/19 07:23:11;;;;;;;23.40;13.80;;;;;;;1.50;84.24;100571.09;216871;1261;141196;-72
2024/03/19 07:28:16;;;;;;;28.80;14.20;;;;;;;1.62;84.67;100573.34;216728;1263;140408;-71
2024/03/19 07:33:19;;;;;;;30.20;16.50;;;;;;;1.69;84.22;100576.64;217194;1263;139825;-70
2024/03/19 07:38:23;;;;;;;25.50;13.00;;;;;;;1.78;84.33;100584.38;217424;1259;142406;-70
2024/03/19 07:43:26;;;;;;;36.50;19.20;;;;;;;1.85;83.99;100586.73;217121;1264;141076;-69
2024/03/19 07:48:29;;;;;;;29.30;17.50;;;;;;;1.96;83.92;100585.99;217141;1259;140203;-69
2024/03/19 07:53:32;;;;;;;36.00;18.90;;;;;;;2.08;83.96;100582.69;217611;1263;142399;-70
2024/03/19 07:58:35;;;;;;;37.70;19.40;;;;;;;2.21;83.82;100588.96;218716;1259;140024;-69
2024/03/19 08:03:39;;;;;;;30.80;16.40;;;;;;;2.34;83.52;100589.15;217589;1259;140972;-70
2024/03/19 08:08:42;;;;;;;30.50;16.40;;;;;;;2.45;83.22;100596.27;217017;1259;140943;-69
2024/03/19 08:13:46;;;;;;;31.00;18.50;;;;;;;2.57;83.23;100601.52;218071;1259;140423;-70
2024/03/19 08:18:49;;;;;;;23.80;15.70;;;;;;;2.67;82.62;100607.08;217582;1263;141332;-70
2024/03/19 08:23:52;;;;;;;29.70;17.40;;;;;;;2.78;82.17;100598.75;217053;1263;140455;-68
2024/03/19 08:28:56;;;;;;;26.40;14.60;;;;;;;2.84;81.88;100598.63;217365;1260;140991;-70
2024/03/19 08:34:00;;;;;;;25.80;15.70;;;;;;;2.91;81.79;100601.05;217126;1263;141504;-70
2024/03/19 08:39:04;;;;;;;24.90;15.00;;;;;;;3.05;81.88;100602.61;217023;1260;141523;-69
2024/03/19 08:44:07;;;;;;;24.70;15.50;;;;;;;3.16;81.71;100601.70;217076;1259;140395;-73
2024/03/19 08:49:11;;;;;;;32.10;17.00;;;;;;;3.31;82.04;100606.27;217130;1259;139893;-71
2024/03/19 08:54:15;;;;;;;24.80;16.00;;;;;;;3.48;81.68;100603.92;217194;1263;140392;-72
2024/03/19 08:59:18;;;;;;;27.10;17.50;;;;;;;3.66;81.13;100614.20;217199;1263;141242;-71
2024/03/19 09:04:21;;;;;;;27.80;16.00;;;;;;;4.01;80.73;100608.83;217076;1263;140556;-71
2024/03/19 09:09:25;;;;;;;29.50;18.10;;;;;;;4.27;80.03;100607.47;217363;1259;141757;-70
2024/03/19 09:14:28;;;;;;;27.40;16.30;;;;;;;4.38;80.12;100600.86;217770;1261;140271;-73
2024/03/19 09:19:41;;;;;;;28.10;16.70;;;;;;;4.44;79.30;100607.27;217605;1261;140275;-71
2024/03/19 09:24:44;;;;;;;26.50;15.80;;;;;;;4.36;78.70;100605.16;217023;1264;140043;-69
2024/03/19 09:29:48;;;;;;;27.10;16.80;;;;;;;4.29;78.52;100609.83;217474;1260;140453;-70
2024/03/19 09:34:51;;;;;;;28.70;16.20;;;;;;;4.32;78.25;100605.45;217525;1261;141505;-71
2024/03/19 09:39:54;;;;;;;23.80;15.00;;;;;;;4.74;78.34;100608.77;216986;1263;140638;-71
2024/03/19 09:45:01;;;;;;;24.10;16.20;;;;;;;5.14;78.39;100609.73;216981;1259;221287;-71
2024/03/19 09:50:15;;;;;;;27.30;15.30;;;;;;;5.12;77.88;100614.44;216842;1263;140786;-71
2024/03/19 09:55:19;;;;;;;29.60;16.00;;;;;;;5.21;77.63;100616.16;218643;1261;141634;-71
2024/03/19 10:00:26;;;;;;;25.60;17.60;;;;;;;5.26;78.02;100618.36;217797;1259;140701;-71
2024/03/19 10:05:30;;;;;;;24.00;15.60;;;;;;;5.31;77.53;100619.06;218159;1259;140681;-71
2024/03/19 10:10:33;;;;;;;23.20;17.70;;;;;;;5.34;77.48;100621.31;217098;1259;140501;-70
2024/03/19 10:15:37;;;;;;;23.90;17.10;;;;;;;5.34;77.17;100625.50;217146;1259;140202;-72
2024/03/19 10:20:40;;;;;;;27.90;16.90;;;;;;;5.29;76.38;100627.69;217368;1263;141881;-72
2024/03/19 10:25:51;;;;;;;27.80;17.50;;;;;;;5.23;76.56;100629.38;217145;1259;142420;-71
2024/03/19 10:30:55;;;;;;;25.70;18.00;;;;;;;5.19;76.34;100631.02;217043;1261;139780;-71
2024/03/19 10:36:00;;;;;;;27.80;17.50;;;;;;;5.20;76.52;100629.90;216999;1263;140023;-71
2024/03/19 10:41:03;;;;;;;21.40;14.40;;;;;;;5.09;76.17;100632.89;217047;1262;141240;-72
2024/03/19 10:46:06;;;;;;;22.10;15.40;;;;;;;5.02;75.86;100632.08;217173;1263;141000;-71
2024/03/19 10:51:11;;;;;;;17.60;12.10;;;;;;;5.07;75.82;100629.77;217231;1263;140769;-73
2024/03/19 10:56:15;;;;;;;16.20;10.10;;;;;;;5.05;75.32;100634.61;216918;1259;140699;-71
2024/03/19 11:01:20;;;;;;;16.10;10.90;;;;;;;5.13;75.08;100641.91;217285;1261;140151;-72
2024/03/19 11:06:24;;;;;;;19.10;12.40;;;;;;;5.73;75.58;100637.56;216944;1259;140540;-73
2024/03/19 11:11:36;;;;;;;15.70;11.60;;;;;;;5.85;74.62;100640.34;217078;1259;139901;-71
2024/03/19 11:16:39;;;;;;;13.50;9.40;;;;;;;6.10;74.66;100634.20;217578;1262;141126;-70
2024/03/19 11:21:45;;;;;;;17.70;10.90;;;;;;;6.42;73.97;100634.29;216980;1259;140002;-72
2024/03/19 11:26:53;;;;;;;15.50;9.50;;;;;;;6.40;73.61;100637.77;216956;1263;140522;-72
2024/03/19 11:32:00;;;;;;;16.50;11.30;;;;;;;6.19;72.73;100639.10;217357;1263;141146;-72
2024/03/19 11:37:09;;;;;;;10.60;9.00;;;;;;;6.09;73.04;100638.02;217115;1259;140155;-73
2024/03/19 11:42:15;;;;;;;13.40;11.20;;;;;;;6.17;72.64;100634.08;217256;1259;140467;-72
2024/03/19 11:47:18;;;;;;;15.60;11.40;;;;;;;6.12;72.11;100635.25;217391;1259;140241;-72
2024/03/19 11:52:21;;;;;;;15.30;12.30;;;;;;;6.10;72.18;100631.08;217199;1259;140843;-71
2024/03/19 11:57:24;;;;;;;16.00;12.70;;;;;;;6.04;71.42;100634.17;217636;1259;142557;-72
2024/03/19 12:02:28;;;;;;;14.60;11.70;;;;;;;5.93;72.33;100636.05;217802;1263;140680;-71
2024/03/19 12:07:31;;;;;;;21.80;13.90;;;;;;;5.93;71.88;100635.52;217729;1259;140178;-72
2024/03/19 12:12:34;;;;;;;20.10;14.60;;;;;;;5.88;71.78;100628.18;217866;1262;142238;-72
2024/03/19 12:17:38;;;;;;;16.70;12.70;;;;;;;5.95;71.58;100619.95;217119;1259;140313;-70
2024/03/19 12:22:51;;;;;;;20.90;12.90;;;;;;;5.91;71.12;100619.02;217039;1263;139962;-71
2024/03/19 12:27:55;;;;;;;14.70;11.40;;;;;;;5.82;71.46;100615.11;217127;1259;141865;-71
2024/03/19 12:38:11;;;;;;;13.70;10.10;;;;;;;5.69;71.42;100600.89;217287;1259;140502;-71
2024/03/19 12:43:15;;;;;;;11.90;9.50;;;;;;;5.99;70.95;100595.29;217469;1261;140332;-72
2024/03/19 12:48:19;;;;;;;9.80;8.30;;;;;;;6.18;71.24;100588.08;217222;1264;139890;-70
2024/03/19 12:53:22;;;;;;;11.10;9.10;;;;;;;6.22;71.09;100580.48;217274;1261;140217;-71
2024/03/19 12:58:25;;;;;;;10.50;8.40;;;;;;;6.32;71.07;100571.15;217223;1262;139953;-71
2024/03/19 13:03:29;;;;;;;9.50;7.80;;;;;;;6.67;70.64;100561.65;217198;1260;141056;-71
2024/03/19 13:08:32;;;;;;;9.50;8.60;;;;;;;7.03;70.70;100555.25;217161;1259;140109;-72
2024/03/19 13:13:35;;;;;;;10.00;8.00;;;;;;;7.40;70.17;100551.96;217577;1259;140244;-71
2024/03/19 13:18:38;;;;;;;9.20;7.30;;;;;;;7.74;69.90;100549.56;217088;1259;139838;-73
2024/03/19 13:23:47;;;;;;;7.80;6.80;;;;;;;8.03;69.24;100552.63;217170;1259;141026;-73
2024/03/19 13:28:50;;;;;;;28.30;8.30;;;;;;;8.19;68.37;100550.09;217163;1259;139234;-72
2024/03/19 13:33:53;;;;;;;12.70;9.60;;;;;;;8.02;68.14;100547.19;217569;1259;139575;-71
2024/03/19 13:38:57;;;;;;;11.00;7.80;;;;;;;7.83;67.90;100543.12;217406;1259;140322;-71
2024/03/19 13:44:00;;;;;;;14.10;7.80;;;;;;;7.62;67.69;100541.17;217578;1259;140770;-70
2024/03/19 13:49:04;;;;;;;8.00;6.40;;;;;;;7.34;67.48;100533.36;218207;1259;140050;-72
2024/03/19 13:54:08;;;;;;;10.60;8.10;;;;;;;7.04;66.61;100532.93;217358;1259;140122;-71
2024/03/19 13:59:12;;;;;;;9.30;8.20;;;;;;;6.77;67.06;100539.23;217787;1259;141058;-71
2024/03/19 14:04:16;;;;;;;8.80;6.80;;;;;;;6.58;67.06;100538.83;217376;1259;140992;-70
2024/03/19 14:09:20;;;;;;;7.60;6.20;;;;;;;6.36;66.78;100542.91;218431;1259;139995;-70
2024/03/19 14:14:24;;;;;;;8.50;7.00;;;;;;;6.19;67.39;100540.84;217122;1259;140077;-72
2024/03/19 14:19:28;;;;;;;10.20;7.40;;;;;;;6.05;67.66;100544.77;217644;1259;140528;-73
2024/03/19 14:24:47;;;;;;;9.40;6.70;;;;;;;5.87;67.49;100545.73;217201;1263;141745;-70
2024/03/19 14:29:50;;;;;;;7.60;6.90;;;;;;;5.74;67.96;100545.82;217230;1259;141396;-71
2024/03/19 14:34:54;;;;;;;11.50;8.00;;;;;;;5.76;67.81;100541.98;217132;1259;140057;-71
2024/03/19 14:39:56;;;;;;;10.70;7.10;;;;;;;5.96;68.10;100533.38;216844;1261;140077;-70
2024/03/19 14:44:59;;;;;;;8.80;6.60;;;;;;;6.22;67.87;100533.35;217115;1263;141624;-70
2024/03/19 14:50:04;;;;;;;9.50;6.10;;;;;;;6.41;68.28;100535.92;217124;1259;140512;-70
2024/03/19 14:55:09;;;;;;;9.10;6.40;;;;;;;6.52;68.23;100537.33;217132;1260;140666;-71
2024/03/19 15:00:13;;;;;;;11.50;5.80;;;;;;;6.56;67.60;100538.06;217194;1262;140235;-70
2024/03/19 15:05:17;;;;;;;7.20;6.30;;;;;;;6.50;67.19;100541.75;216975;1259;244495;-71
2024/03/19 15:10:20;;;;;;;7.00;6.10;;;;;;;6.50;67.28;100539.34;216997;1263;140826;-70
2024/03/19 15:15:22;;;;;;;8.60;6.80;;;;;;;6.51;67.49;100542.98;217090;1259;140383;-70
2024/03/19 15:20:25;;;;;;;9.80;6.20;;;;;;;6.52;67.28;100546.86;217604;1261;141194;-71
2024/03/19 15:25:33;;;;;;;12.10;7.40;;;;;;;6.50;67.19;100547.45;217468;1264;225080;-71
2024/03/19 15:30:36;;;;;;;11.80;7.90;;;;;;;6.42;66.92;100543.59;217149;1260;140965;-69
2024/03/19 15:35:39;;;;;;;9.60;7.40;;;;;;;6.34;67.33;100543.39;217815;1262;140027;-71
2024/03/19 15:40:45;;;;;;;10.30;7.50;;;;;;;6.28;66.82;100539.65;216908;1264;140675;-70
2024/03/19 15:45:48;;;;;;;16.60;11.00;;;;;;;6.24;67.09;100544.77;217013;1259;141202;-71
2024/03/19 15:50:51;;;;;;;9.70;7.80;;;;;;;6.18;66.95;100540.39;217093;1263;140969;-72
2024/03/19 15:55:58;;;;;;;10.50;7.50;;;;;;;6.07;66.66;100541.38;217210;1259;140150;-69
2024/03/19 16:01:01;;;;;;;10.10;7.40;;;;;;;6.01;67.04;100536.41;216934;1263;140220;-70
2024/03/19 16:06:04;;;;;;;9.70;7.40;;;;;;;5.96;67.24;100539.97;216811;1265;140623;-71
2024/03/19 16:11:07;;;;;;;11.10;6.70;;;;;;;5.89;67.48;100545.65;217014;1262;140058;-70
2024/03/19 16:16:10;;;;;;;10.00;7.90;;;;;;;5.77;67.63;100549.03;216866;1259;139918;-71
2024/03/19 16:21:15;;;;;;;10.10;6.40;;;;;;;5.64;67.42;100552.84;216741;1259;140179;-70
2024/03/19 16:26:20;;;;;;;7.70;5.80;;;;;;;5.51;67.43;100554.93;216876;1264;140167;-68
2024/03/19 16:31:23;;;;;;;12.30;7.90;;;;;;;5.30;67.42;100556.37;216907;1260;140187;-69
2024/03/19 16:36:26;;;;;;;10.50;6.80;;;;;;;5.13;67.43;100554.56;216900;1259;141108;-72
2024/03/19 16:41:30;;;;;;;8.50;5.80;;;;;;;4.97;67.34;100557.76;216923;1263;140185;-69
2024/03/19 16:46:33;;;;;;;10.20;6.70;;;;;;;4.85;68.05;100560.45;217345;1262;142677;-69
2024/03/19 16:51:38;;;;;;;10.80;6.60;;;;;;;4.68;68.35;100559.62;217044;1259;150484;-70
2024/03/19 16:56:41;;;;;;;10.80;8.00;;;;;;;4.50;68.43;100565.77;216974;1259;141607;-70
2024/03/19 17:01:44;;;;;;;8.10;5.80;;;;;;;4.27;68.13;100565.08;217735;1265;141038;-70
2024/03/19 17:06:50;;;;;;;10.80;6.70;;;;;;;4.08;68.88;100573.66;216628;1262;141005;-69
2024/03/19 17:11:54;;;;;;;;;;;;;;;3.88;69.27;100579.86;217902;1260;140129;-69
2024/03/19 17:16:58;;;;;;;10.20;6.30;;;;;;;3.62;69.69;100582.35;217235;1265;127438;-68
2024/03/19 17:22:03;;;;;;;9.50;7.10;;;;;;;3.43;70.08;100582.13;216950;1262;141081;-68
2024/03/19 17:27:06;;;;;;;8.40;5.50;;;;;;;3.25;70.23;100585.20;217431;1263;140202;-69
2024/03/19 17:32:10;;;;;;;14.50;6.60;;;;;;;3.11;70.76;100589.58;217028;1263;375527;-69
2024/03/19 17:37:12;;;;;;;11.10;6.80;;;;;;;2.92;70.47;100593.56;217045;1263;140283;-70
2024/03/19 17:42:15;;;;;;;10.90;6.80;;;;;;;2.74;70.71;100598.82;216899;1261;140654;-68
2024/03/19 17:47:17;;;;;;;10.40;5.80;;;;;;;2.54;70.66;100605.73;216961;1261;140224;-69
2024/03/19 17:52:21;;;;;;;11.50;7.80;;;;;;;2.38;71.18;100605.64;216876;1260;140352;-70
2024/03/19 17:57:24;;;;;;;9.20;5.90;;;;;;;2.24;71.55;100608.98;217130;1263;140202;-69
2024/03/19 18:02:27;;;;;;;11.40;6.60;;;;;;;2.02;71.48;100612.71;217069;1259;140060;-68
2024/03/19 18:07:30;;;;;;;8.90;6.50;;;;;;;1.79;71.83;100611.64;216936;1263;140928;-70
2024/03/19 18:12:40;;;;;;;9.90;6.20;;;;;;;1.55;71.95;100607.89;217155;1260;141304;-70
2024/03/19 18:17:45;;;;;;;8.50;6.20;;;;;;;1.32;72.34;100608.11;216780;1264;142186;-72
2024/03/19 18:22:50;;;;;;;6.90;5.40;;;;;;;1.15;72.31;100606.16;217262;1262;139944;-69
2024/03/19 18:27:53;;;;;;;9.80;5.40;;;;;;;0.96;72.89;100611.84;216772;1259;141436;-68
2024/03/19 18:32:57;;;;;;;14.60;9.70;;;;;;;0.84;73.35;100604.13;216999;1259;140612;-70
2024/03/19 18:38:00;;;;;;;16.10;10.30;;;;;;;0.84;73.80;100599.07;216992;1259;141206;-70
2024/03/19 18:43:04;;;;;;;27.40;13.40;;;;;;;0.76;73.89;100595.81;217288;1259;140784;-69
2024/03/19 18:48:08;;;;;;;37.00;19.30;;;;;;;0.56;73.78;100592.61;217885;1259;140732;-70
2024/03/19 18:53:12;;;;;;;81.60;34.10;;;;;;;0.42;74.35;100596.62;216764;1263;141049;-70
2024/03/19 18:58:16;;;;;;;82.40;30.00;;;;;;;0.30;74.30;100598.90;217881;1263;141411;-69
2024/03/19 19:03:19;;;;;;;76.70;31.60;;;;;;;0.22;74.80;100608.32;216944;1260;139927;-69
2024/03/19 19:08:22;;;;;;;57.60;23.60;;;;;;;0.13;74.96;100613.38;217019;1263;139977;-71
2024/03/19 19:13:28;;;;;;;59.90;23.80;;;;;;;0.06;75.40;100618.37;217048;1259;140213;-69
2024/03/19 19:18:31;;;;;;;47.80;23.30;;;;;;;-0.03;75.19;100618.77;216887;1263;140865;-69
2024/03/19 19:23:34;;;;;;;29.90;14.90;;;;;;;-0.13;75.47;100622.30;217081;1259;142526;-68
2024/03/19 19:28:37;;;;;;;36.60;15.30;;;;;;;-0.24;75.57;100617.23;216835;1263;141360;-69
2024/03/19 19:33:40;;;;;;;23.30;12.90;;;;;;;-0.29;75.98;100626.27;216986;1260;141480;-69
2024/03/19 19:38:43;;;;;;;41.70;17.10;;;;;;;-0.37;76.22;100627.50;216942;1259;140456;-69
2024/03/19 19:43:47;;;;;;;33.70;20.00;;;;;;;-0.43;76.26;100626.14;217187;1260;141930;-69
2024/03/19 19:48:50;;;;;;;43.00;18.60;;;;;;;-0.51;76.43;100618.70;217401;1259;141594;-69
2024/03/19 19:53:53;;;;;;;44.60;22.90;;;;;;;-0.55;76.92;100619.09;217655;1263;141680;-69
2024/03/19 19:58:57;;;;;;;63.80;32.40;;;;;;;-0.62;76.95;100619.02;217018;1263;140849;-69
2024/03/19 20:04:01;;;;;;;80.20;42.80;;;;;;;-0.61;77.13;100620.55;216827;1260;141529;-71
2024/03/19 20:09:04;;;;;;;82.80;42.90;;;;;;;-0.64;77.23;100622.52;217361;1262;140453;-69
2024/03/19 20:14:07;;;;;;;76.10;40.90;;;;;;;-0.71;77.09;100620.00;216810;1260;142327;-69
2024/03/19 20:19:11;;;;;;;78.90;38.50;;;;;;;-0.79;77.48;100621.98;217361;1265;140432;-68
2024/03/19 20:24:15;;;;;;;64.30;34.90;;;;;;;-0.83;77.61;100617.65;217046;1261;141280;-69
2024/03/19 20:29:19;;;;;;;61.80;32.40;;;;;;;-0.89;77.80;100621.02;217094;1259;140432;-68
2024/03/19 20:34:21;;;;;;;64.00;33.10;;;;;;;-0.96;77.82;100621.82;216961;1263;140556;-68
2024/03/19 20:39:24;;;;;;;71.80;33.20;;;;;;;-1.03;77.72;100626.09;216866;1263;140650;-69
2024/03/19 20:44:28;;;;;;;70.20;38.20;;;;;;;-1.07;78.19;100627.88;216829;1264;141581;-68
2024/03/19 20:49:30;;;;;;;53.60;33.00;;;;;;;-1.14;78.09;100633.05;217711;1260;141204;-69
2024/03/19 20:54:35;;;;;;;56.80;29.30;;;;;;;-1.22;78.23;100630.65;217344;1263;140416;-68
2024/03/19 20:59:37;;;;;;;63.20;32.30;;;;;;;-1.29;78.37;100634.05;217950;1261;141015;-68
2024/03/19 21:04:41;;;;;;;95.40;45.70;;;;;;;-1.35;78.71;100633.02;216889;1260;140392;-69
2024/03/19 21:09:45;;;;;;;92.20;43.30;;;;;;;-1.41;78.65;100623.73;217052;1261;140915;-68
2024/03/19 21:14:48;;;;;;;70.50;35.50;;;;;;;-1.45;79.00;100619.23;216826;1263;140793;-68
2024/03/19 21:19:50;;;;;;;66.30;31.70;;;;;;;-1.48;79.30;100618.29;217085;1263;140520;-68
2024/03/19 21:24:53;;;;;;;71.30;32.70;;;;;;;-1.54;79.36;100617.60;217635;1263;140938;-69
2024/03/19 21:29:59;;;;;;;64.80;36.00;;;;;;;-1.55;79.57;100615.11;218399;1263;140764;-68
2024/03/19 21:35:02;;;;;;;60.80;38.90;;;;;;;-1.57;79.64;100613.55;217041;1263;141519;-68
2024/03/19 21:40:09;;;;;;;59.90;31.90;;;;;;;-1.60;79.47;100611.25;217173;1263;140071;-68
2024/03/19 21:45:13;;;;;;;;;;;;;;;-1.67;79.51;100607.09;217451;1263;140229;-70
2024/03/19 21:50:17;;;;;;;45.70;28.40;;;;;;;-1.76;79.83;100603.48;217247;1263;126527;-68
2024/03/19 21:55:20;;;;;;;61.40;33.00;;;;;;;-1.80;79.90;100600.20;217107;1260;141455;-69
2024/03/19 22:00:24;;;;;;;90.70;38.50;;;;;;;-1.80;80.35;100596.33;216869;1263;141284;-68
2024/03/19 22:05:27;;;;;;;72.10;37.10;;;;;;;-1.80;80.23;100597.20;216938;1260;140413;-68
2024/03/19 22:10:31;;;;;;;79.70;41.50;;;;;;;-1.79;80.31;100598.39;216804;1263;140995;-68
2024/03/19 22:15:34;;;;;;;68.90;39.40;;;;;;;-1.83;80.24;100594.73;217770;1260;141427;-68
2024/03/19 22:20:37;;;;;;;64.00;39.10;;;;;;;-1.86;80.47;100593.95;217106;1264;141336;-68
2024/03/19 22:25:40;;;;;;;62.90;38.50;;;;;;;-1.88;80.47;100592.95;217472;1263;140680;-68
2024/03/19 22:30:43;;;;;;;71.10;38.20;;;;;;;-1.90;80.56;100593.63;216886;1263;141877;-68
2024/03/19 22:35:46;;;;;;;78.10;42.30;;;;;;;-1.91;80.68;100585.30;216886;1261;141296;-68
2024/03/19 22:40:51;;;;;;;81.40;42.50;;;;;;;-1.89;80.82;100591.08;217549;1260;141649;-69
2024/03/19 22:45:53;;;;;;;78.20;43.30;;;;;;;-1.91;80.69;100594.17;216800;1260;142630;-68
2024/03/19 22:50:57;;;;;;;84.60;44.00;;;;;;;-1.94;80.83;100596.06;217216;1263;142551;-68
2024/03/19 22:56:00;;;;;;;82.50;42.00;;;;;;;-1.95;80.91;100595.83;216985;1261;141630;-68